sensor_id;sensor_type;location;lat;lon;timestamp;P1;durP1;ratioP1;P2;durP2;ratioP2
64403;SDS011;50726;54.912;-8.392;2022-07-04T00:01:21;55.22;;;50.78;;
64403;SDS011;50726;54.912;-8.392;2022-07-04T00:03:47;55.05;;;51.45;;
64403;SDS011;50726;54.912;-8.392;2022-07-04T00:06:13;58.85;;;55.13;;
64403;SDS011;50726;54.912;-8.392;2022-07-04T00:08:39;57.47;;;53.25;;
64403;SDS011;50726;54.912;-8.392;2022-07-04T00:11:04;50.60;;;45.95;;
64403;SDS011;50726;54.912;-8.392;2022-07-04T00:13:30;41.95;;;39.03;;
64403;SDS011;50726;54.912;-8.392;2022-07-04T00:15:55;37.38;;;34.58;;
64403;SDS011;50726;54.912;-8.392;2022-07-04T00:18:21;32.05;;;29.95;;
64403;SDS011;50726;54.912;-8.392;2022-07-04T00:20:47;34.10;;;31.38;;
64403;SDS011;50726;54.912;-8.392;2022-07-04T00:23:13;35.63;;;29.33;;
64403;SDS011;50726;54.912;-8.392;2022-07-04T00:25:38;36.53;;;33.67;;
64403;SDS011;50726;54.912;-8.392;2022-07-04T00:28:04;27.95;;;25.63;;
64403;SDS011;50726;54.912;-8.392;2022-07-04T00:30:30;25.80;;;23.88;;
64403;SDS011;50726;54.912;-8.392;2022-07-04T00:32:55;24.90;;;22.88;;
64403;SDS011;50726;54.912;-8.392;2022-07-04T00:35:21;21.85;;;18.67;;
64403;SDS011;50726;54.912;-8.392;2022-07-04T00:37:47;37.53;;;22.67;;
64403;SDS011;50726;54.912;-8.392;2022-07-04T00:40:12;19.92;;;17.92;;
64403;SDS011;50726;54.912;-8.392;2022-07-04T00:42:38;21.05;;;17.50;;
64403;SDS011;50726;54.912;-8.392;2022-07-04T00:45:04;13.80;;;12.38;;
64403;SDS011;50726;54.912;-8.392;2022-07-04T00:47:30;16.50;;;11.05;;
64403;SDS011;50726;54.912;-8.392;2022-07-04T00:49:57;13.60;;;11.20;;
64403;SDS011;50726;54.912;-8.392;2022-07-04T00:52:22;14.65;;;13.32;;
64403;SDS011;50726;54.912;-8.392;2022-07-04T00:54:48;29.67;;;16.05;;
64403;SDS011;50726;54.912;-8.392;2022-07-04T00:57:14;23.55;;;16.98;;
64403;SDS011;50726;54.912;-8.392;2022-07-04T00:59:40;21.48;;;17.85;;
64403;SDS011;50726;54.912;-8.392;2022-07-04T01:02:05;23.88;;;17.00;;
64403;SDS011;50726;54.912;-8.392;2022-07-04T01:04:33;16.08;;;13.90;;
64403;SDS011;50726;54.912;-8.392;2022-07-04T01:06:59;18.95;;;13.30;;
64403;SDS011;50726;54.912;-8.392;2022-07-04T01:09:25;21.35;;;17.77;;
64403;SDS011;50726;54.912;-8.392;2022-07-04T01:11:51;18.27;;;16.40;;
64403;SDS011;50726;54.912;-8.392;2022-07-04T01:14:17;24.33;;;15.48;;
64403;SDS011;50726;54.912;-8.392;2022-07-04T01:16:43;18.65;;;16.10;;
64403;SDS011;50726;54.912;-8.392;2022-07-04T01:19:08;22.05;;;16.75;;
64403;SDS011;50726;54.912;-8.392;2022-07-04T01:21:34;25.52;;;17.88;;
64403;SDS011;50726;54.912;-8.392;2022-07-04T01:24:00;29.50;;;19.25;;
64403;SDS011;50726;54.912;-8.392;2022-07-04T01:26:27;31.33;;;19.27;;
64403;SDS011;50726;54.912;-8.392;2022-07-04T01:28:53;26.63;;;21.65;;
64403;SDS011;50726;54.912;-8.392;2022-07-04T01:31:18;22.60;;;19.30;;
64403;SDS011;50726;54.912;-8.392;2022-07-04T01:33:44;43.13;;;28.27;;
64403;SDS011;50726;54.912;-8.392;2022-07-04T01:36:10;19.75;;;18.02;;
64403;SDS011;50726;54.912;-8.392;2022-07-04T01:38:35;27.35;;;18.92;;
64403;SDS011;50726;54.912;-8.392;2022-07-04T01:41:01;25.98;;;21.95;;
64403;SDS011;50726;54.912;-8.392;2022-07-04T01:43:26;32.30;;;23.95;;
64403;SDS011;50726;54.912;-8.392;2022-07-04T01:45:52;40.47;;;27.25;;
64403;SDS011;50726;54.912;-8.392;2022-07-04T01:48:17;30.73;;;27.98;;
64403;SDS011;50726;54.912;-8.392;2022-07-04T01:50:43;31.83;;;29.00;;
64403;SDS011;50726;54.912;-8.392;2022-07-04T01:53:09;37.00;;;32.63;;
64403;SDS011;50726;54.912;-8.392;2022-07-04T01:55:35;35.90;;;32.42;;
64403;SDS011;50726;54.912;-8.392;2022-07-04T02:01:23;35.47;;;32.13;;
64403;SDS011;50726;54.912;-8.392;2022-07-04T02:03:54;46.88;;;40.00;;
64403;SDS011;50726;54.912;-8.392;2022-07-04T02:06:21;45.88;;;37.72;;
64403;SDS011;50726;54.912;-8.392;2022-07-04T02:08:47;35.72;;;32.03;;
64403;SDS011;50726;54.912;-8.392;2022-07-04T02:11:32;32.70;;;24.15;;
64403;SDS011;50726;54.912;-8.392;2022-07-04T02:14:17;38.60;;;25.08;;
64403;SDS011;50726;54.912;-8.392;2022-07-04T02:16:43;25.77;;;23.08;;
64403;SDS011;50726;54.912;-8.392;2022-07-04T02:19:09;27.95;;;23.80;;
64403;SDS011;50726;54.912;-8.392;2022-07-04T02:21:35;22.92;;;18.83;;
64403;SDS011;50726;54.912;-8.392;2022-07-04T02:24:01;15.07;;;13.63;;
64403;SDS011;50726;54.912;-8.392;2022-07-04T02:26:27;11.27;;;8.85;;
64403;SDS011;50726;54.912;-8.392;2022-07-04T02:28:52;23.83;;;10.15;;
64403;SDS011;50726;54.912;-8.392;2022-07-04T02:31:18;21.65;;;11.75;;
64403;SDS011;50726;54.912;-8.392;2022-07-04T02:33:44;15.05;;;8.52;;
64403;SDS011;50726;54.912;-8.392;2022-07-04T02:36:09;23.45;;;9.43;;
64403;SDS011;50726;54.912;-8.392;2022-07-04T02:38:35;15.95;;;9.18;;
64403;SDS011;50726;54.912;-8.392;2022-07-04T02:41:01;19.33;;;10.80;;
64403;SDS011;50726;54.912;-8.392;2022-07-04T02:43:26;16.73;;;7.65;;
64403;SDS011;50726;54.912;-8.392;2022-07-04T02:45:52;12.43;;;5.90;;
64403;SDS011;50726;54.912;-8.392;2022-07-04T02:48:17;7.80;;;4.22;;
64403;SDS011;50726;54.912;-8.392;2022-07-04T02:50:43;3.35;;;3.05;;
64403;SDS011;50726;54.912;-8.392;2022-07-04T02:53:11;9.27;;;2.50;;
64403;SDS011;50726;54.912;-8.392;2022-07-04T02:55:36;10.15;;;3.33;;
64403;SDS011;50726;54.912;-8.392;2022-07-04T02:58:02;8.52;;;2.75;;
64403;SDS011;50726;54.912;-8.392;2022-07-04T03:00:28;2.83;;;1.70;;
64403;SDS011;50726;54.912;-8.392;2022-07-04T03:02:54;7.40;;;2.03;;
64403;SDS011;50726;54.912;-8.392;2022-07-04T03:05:20;9.75;;;2.97;;
64403;SDS011;50726;54.912;-8.392;2022-07-04T03:07:45;5.70;;;1.95;;
64403;SDS011;50726;54.912;-8.392;2022-07-04T03:10:11;6.00;;;1.90;;
64403;SDS011;50726;54.912;-8.392;2022-07-04T03:12:37;14.23;;;2.90;;
64403;SDS011;50726;54.912;-8.392;2022-07-04T03:15:03;14.52;;;2.47;;
64403;SDS011;50726;54.912;-8.392;2022-07-04T03:17:30;7.55;;;2.35;;
64403;SDS011;50726;54.912;-8.392;2022-07-04T03:19:59;12.48;;;2.70;;
64403;SDS011;50726;54.912;-8.392;2022-07-04T03:22:25;11.88;;;3.25;;
64403;SDS011;50726;54.912;-8.392;2022-07-04T03:24:51;14.60;;;3.72;;
64403;SDS011;50726;54.912;-8.392;2022-07-04T03:27:16;24.83;;;4.03;;
64403;SDS011;50726;54.912;-8.392;2022-07-04T03:29:42;19.85;;;4.82;;
64403;SDS011;50726;54.912;-8.392;2022-07-04T03:32:09;13.35;;;7.10;;
64403;SDS011;50726;54.912;-8.392;2022-07-04T03:34:34;16.15;;;11.15;;
64403;SDS011;50726;54.912;-8.392;2022-07-04T03:37:00;12.25;;;10.95;;
64403;SDS011;50726;54.912;-8.392;2022-07-04T03:39:26;23.13;;;13.35;;
64403;SDS011;50726;54.912;-8.392;2022-07-04T03:41:52;20.70;;;18.63;;
64403;SDS011;50726;54.912;-8.392;2022-07-04T03:44:17;24.80;;;22.67;;
64403;SDS011;50726;54.912;-8.392;2022-07-04T03:46:43;22.35;;;17.83;;
64403;SDS011;50726;54.912;-8.392;2022-07-04T03:49:09;21.13;;;14.15;;
64403;SDS011;50726;54.912;-8.392;2022-07-04T03:51:34;15.15;;;13.63;;
64403;SDS011;50726;54.912;-8.392;2022-07-04T03:54:00;17.48;;;14.48;;
64403;SDS011;50726;54.912;-8.392;2022-07-04T03:56:25;17.45;;;14.48;;
64403;SDS011;50726;54.912;-8.392;2022-07-04T03:58:51;29.85;;;14.75;;
64403;SDS011;50726;54.912;-8.392;2022-07-04T04:01:17;21.63;;;18.50;;
64403;SDS011;50726;54.912;-8.392;2022-07-04T04:03:45;19.02;;;17.35;;
64403;SDS011;50726;54.912;-8.392;2022-07-04T04:06:30;17.83;;;14.85;;
64403;SDS011;50726;54.912;-8.392;2022-07-04T04:08:56;13.85;;;11.07;;
64403;SDS011;50726;54.912;-8.392;2022-07-04T04:11:22;16.05;;;7.80;;
64403;SDS011;50726;54.912;-8.392;2022-07-04T04:13:48;9.55;;;5.60;;
64403;SDS011;50726;54.912;-8.392;2022-07-04T04:16:14;9.23;;;5.30;;
64403;SDS011;50726;54.912;-8.392;2022-07-04T04:18:39;9.65;;;7.05;;
64403;SDS011;50726;54.912;-8.392;2022-07-04T04:21:06;24.35;;;7.07;;
64403;SDS011;50726;54.912;-8.392;2022-07-04T04:23:31;14.27;;;8.95;;
64403;SDS011;50726;54.912;-8.392;2022-07-04T04:25:57;13.02;;;11.70;;
64403;SDS011;50726;54.912;-8.392;2022-07-04T04:28:23;19.85;;;11.48;;
64403;SDS011;50726;54.912;-8.392;2022-07-04T04:30:52;19.15;;;14.18;;
64403;SDS011;50726;54.912;-8.392;2022-07-04T04:33:17;17.15;;;15.45;;
64403;SDS011;50726;54.912;-8.392;2022-07-04T04:35:43;23.15;;;18.42;;
64403;SDS011;50726;54.912;-8.392;2022-07-04T04:38:09;23.63;;;21.20;;
64403;SDS011;50726;54.912;-8.392;2022-07-04T04:40:34;18.40;;;16.05;;
64403;SDS011;50726;54.912;-8.392;2022-07-04T04:43:00;15.05;;;13.57;;
64403;SDS011;50726;54.912;-8.392;2022-07-04T04:45:26;13.45;;;12.13;;
64403;SDS011;50726;54.912;-8.392;2022-07-04T04:47:51;13.07;;;11.82;;
64403;SDS011;50726;54.912;-8.392;2022-07-04T04:50:19;13.85;;;12.63;;
64403;SDS011;50726;54.912;-8.392;2022-07-04T04:52:46;15.10;;;13.75;;
64403;SDS011;50726;54.912;-8.392;2022-07-04T04:55:11;14.68;;;13.48;;
64403;SDS011;50726;54.912;-8.392;2022-07-04T04:57:37;12.82;;;11.88;;
64403;SDS011;50726;54.912;-8.392;2022-07-04T05:00:03;11.52;;;8.77;;
64403;SDS011;50726;54.912;-8.392;2022-07-04T05:02:29;14.82;;;11.27;;
64403;SDS011;50726;54.912;-8.392;2022-07-04T05:04:55;21.77;;;12.70;;
64403;SDS011;50726;54.912;-8.392;2022-07-04T05:07:21;16.58;;;14.73;;
64403;SDS011;50726;54.912;-8.392;2022-07-04T05:09:48;19.92;;;17.75;;
64403;SDS011;50726;54.912;-8.392;2022-07-04T05:12:13;20.33;;;19.15;;
64403;SDS011;50726;54.912;-8.392;2022-07-04T05:14:39;27.67;;;25.52;;
64403;SDS011;50726;54.912;-8.392;2022-07-04T05:17:05;28.70;;;25.88;;
64403;SDS011;50726;54.912;-8.392;2022-07-04T05:19:30;28.50;;;25.88;;
64403;SDS011;50726;54.912;-8.392;2022-07-04T05:21:56;29.75;;;27.30;;
64403;SDS011;50726;54.912;-8.392;2022-07-04T05:24:22;29.83;;;27.85;;
64403;SDS011;50726;54.912;-8.392;2022-07-04T05:26:47;29.23;;;27.15;;
64403;SDS011;50726;54.912;-8.392;2022-07-04T05:29:13;33.00;;;29.58;;
64403;SDS011;50726;54.912;-8.392;2022-07-04T05:31:39;33.95;;;31.30;;
64403;SDS011;50726;54.912;-8.392;2022-07-04T05:34:04;34.35;;;31.20;;
64403;SDS011;50726;54.912;-8.392;2022-07-04T05:36:30;37.85;;;34.45;;
64403;SDS011;50726;54.912;-8.392;2022-07-04T05:38:57;38.42;;;34.97;;
64403;SDS011;50726;54.912;-8.392;2022-07-04T05:41:23;40.63;;;37.13;;
64403;SDS011;50726;54.912;-8.392;2022-07-04T05:43:50;41.03;;;37.78;;
64403;SDS011;50726;54.912;-8.392;2022-07-04T05:46:15;35.35;;;32.47;;
64403;SDS011;50726;54.912;-8.392;2022-07-04T05:48:41;36.80;;;34.10;;
64403;SDS011;50726;54.912;-8.392;2022-07-04T05:51:07;37.67;;;35.20;;
64403;SDS011;50726;54.912;-8.392;2022-07-04T05:53:33;34.42;;;32.53;;
64403;SDS011;50726;54.912;-8.392;2022-07-04T05:55:58;36.58;;;34.03;;
64403;SDS011;50726;54.912;-8.392;2022-07-04T05:58:24;42.75;;;39.83;;
64403;SDS011;50726;54.912;-8.392;2022-07-04T06:00:49;39.03;;;36.63;;
64403;SDS011;50726;54.912;-8.392;2022-07-04T06:03:15;42.15;;;39.42;;
64403;SDS011;50726;54.912;-8.392;2022-07-04T06:05:41;39.30;;;37.10;;
64403;SDS011;50726;54.912;-8.392;2022-07-04T06:08:08;35.70;;;33.53;;
64403;SDS011;50726;54.912;-8.392;2022-07-04T06:10:33;37.10;;;34.97;;
64403;SDS011;50726;54.912;-8.392;2022-07-04T06:12:59;39.95;;;37.47;;
64403;SDS011;50726;54.912;-8.392;2022-07-04T06:15:25;44.72;;;41.50;;
64403;SDS011;50726;54.912;-8.392;2022-07-04T06:17:50;43.28;;;40.10;;
64403;SDS011;50726;54.912;-8.392;2022-07-04T06:20:16;46.75;;;43.47;;
64403;SDS011;50726;54.912;-8.392;2022-07-04T06:22:44;45.45;;;41.75;;
64403;SDS011;50726;54.912;-8.392;2022-07-04T06:25:15;44.53;;;41.13;;
64403;SDS011;50726;54.912;-8.392;2022-07-04T06:27:43;45.17;;;42.15;;
64403;SDS011;50726;54.912;-8.392;2022-07-04T06:30:10;44.97;;;41.78;;
64403;SDS011;50726;54.912;-8.392;2022-07-04T06:32:47;43.88;;;40.40;;
64403;SDS011;50726;54.912;-8.392;2022-07-04T06:35:13;45.55;;;42.25;;
64403;SDS011;50726;54.912;-8.392;2022-07-04T06:38:00;47.92;;;44.88;;
64403;SDS011;50726;54.912;-8.392;2022-07-04T06:40:26;49.35;;;45.80;;
64403;SDS011;50726;54.912;-8.392;2022-07-04T06:42:52;45.75;;;43.17;;
64403;SDS011;50726;54.912;-8.392;2022-07-04T06:45:18;48.60;;;44.42;;
64403;SDS011;50726;54.912;-8.392;2022-07-04T06:47:45;45.92;;;43.00;;
64403;SDS011;50726;54.912;-8.392;2022-07-04T06:50:15;36.03;;;32.63;;
64403;SDS011;50726;54.912;-8.392;2022-07-04T06:52:41;37.90;;;35.30;;
64403;SDS011;50726;54.912;-8.392;2022-07-04T06:55:06;31.48;;;29.17;;
64403;SDS011;50726;54.912;-8.392;2022-07-04T06:57:32;41.25;;;38.55;;
64403;SDS011;50726;54.912;-8.392;2022-07-04T06:59:58;46.92;;;43.60;;
64403;SDS011;50726;54.912;-8.392;2022-07-04T07:02:24;50.55;;;46.60;;
64403;SDS011;50726;54.912;-8.392;2022-07-04T07:04:53;37.63;;;34.60;;
64403;SDS011;50726;54.912;-8.392;2022-07-04T07:07:25;44.30;;;41.60;;
64403;SDS011;50726;54.912;-8.392;2022-07-04T07:09:52;44.28;;;40.83;;
64403;SDS011;50726;54.912;-8.392;2022-07-04T07:12:19;35.70;;;33.50;;
64403;SDS011;50726;54.912;-8.392;2022-07-04T07:14:45;22.33;;;20.92;;
64403;SDS011;50726;54.912;-8.392;2022-07-04T07:17:11;18.17;;;16.98;;
64403;SDS011;50726;54.912;-8.392;2022-07-04T07:19:37;21.13;;;19.33;;
64403;SDS011;50726;54.912;-8.392;2022-07-04T07:22:03;14.60;;;13.65;;
64403;SDS011;50726;54.912;-8.392;2022-07-04T07:24:29;12.75;;;11.80;;
64403;SDS011;50726;54.912;-8.392;2022-07-04T07:26:56;13.13;;;12.32;;
64403;SDS011;50726;54.912;-8.392;2022-07-04T07:29:22;13.82;;;12.68;;
64403;SDS011;50726;54.912;-8.392;2022-07-04T07:31:49;17.80;;;16.52;;
64403;SDS011;50726;54.912;-8.392;2022-07-04T07:34:15;26.92;;;24.55;;
64403;SDS011;50726;54.912;-8.392;2022-07-04T07:36:41;33.85;;;31.10;;
64403;SDS011;50726;54.912;-8.392;2022-07-04T07:39:06;32.35;;;29.88;;
64403;SDS011;50726;54.912;-8.392;2022-07-04T07:41:32;37.78;;;26.23;;
64403;SDS011;50726;54.912;-8.392;2022-07-04T07:43:58;31.65;;;29.48;;
64403;SDS011;50726;54.912;-8.392;2022-07-04T07:46:23;22.63;;;20.75;;
64403;SDS011;50726;54.912;-8.392;2022-07-04T07:48:49;21.33;;;19.30;;
64403;SDS011;50726;54.912;-8.392;2022-07-04T07:51:15;17.02;;;15.85;;
64403;SDS011;50726;54.912;-8.392;2022-07-04T07:53:41;9.95;;;9.13;;
64403;SDS011;50726;54.912;-8.392;2022-07-04T07:56:07;16.65;;;15.27;;
64403;SDS011;50726;54.912;-8.392;2022-07-04T07:58:33;19.77;;;16.90;;
64403;SDS011;50726;54.912;-8.392;2022-07-04T08:00:59;20.95;;;19.60;;
64403;SDS011;50726;54.912;-8.392;2022-07-04T08:03:27;22.85;;;19.75;;
64403;SDS011;50726;54.912;-8.392;2022-07-04T08:06:12;23.33;;;21.77;;
64403;SDS011;50726;54.912;-8.392;2022-07-04T08:08:41;21.80;;;20.13;;
64403;SDS011;50726;54.912;-8.392;2022-07-04T08:11:08;11.43;;;10.68;;
64403;SDS011;50726;54.912;-8.392;2022-07-04T08:13:37;8.32;;;6.70;;
64403;SDS011;50726;54.912;-8.392;2022-07-04T08:16:04;18.27;;;9.02;;
64403;SDS011;50726;54.912;-8.392;2022-07-04T08:18:31;13.88;;;10.93;;
64403;SDS011;50726;54.912;-8.392;2022-07-04T08:20:57;18.30;;;11.20;;
64403;SDS011;50726;54.912;-8.392;2022-07-04T08:23:24;13.00;;;8.63;;
64403;SDS011;50726;54.912;-8.392;2022-07-04T08:25:49;8.77;;;8.00;;
64403;SDS011;50726;54.912;-8.392;2022-07-04T08:28:16;10.80;;;9.63;;
64403;SDS011;50726;54.912;-8.392;2022-07-04T08:30:42;12.13;;;7.38;;
64403;SDS011;50726;54.912;-8.392;2022-07-04T08:33:08;13.35;;;7.07;;
64403;SDS011;50726;54.912;-8.392;2022-07-04T08:35:33;10.88;;;9.82;;
64403;SDS011;50726;54.912;-8.392;2022-07-04T08:37:59;18.83;;;14.40;;
64403;SDS011;50726;54.912;-8.392;2022-07-04T08:40:29;17.48;;;16.48;;
64403;SDS011;50726;54.912;-8.392;2022-07-04T08:42:56;19.67;;;17.88;;
64403;SDS011;50726;54.912;-8.392;2022-07-04T08:45:32;20.98;;;19.02;;
64403;SDS011;50726;54.912;-8.392;2022-07-04T08:48:02;12.07;;;11.00;;
64403;SDS011;50726;54.912;-8.392;2022-07-04T08:50:30;20.17;;;7.93;;
64403;SDS011;50726;54.912;-8.392;2022-07-04T08:53:02;4.30;;;3.50;;
64403;SDS011;50726;54.912;-8.392;2022-07-04T08:55:32;9.40;;;5.13;;
64403;SDS011;50726;54.912;-8.392;2022-07-04T08:58:16;5.60;;;5.03;;
64403;SDS011;50726;54.912;-8.392;2022-07-04T09:00:52;12.40;;;6.38;;
64403;SDS011;50726;54.912;-8.392;2022-07-04T09:03:19;9.43;;;6.00;;
64403;SDS011;50726;54.912;-8.392;2022-07-04T09:05:45;10.18;;;5.72;;
64403;SDS011;50726;54.912;-8.392;2022-07-04T09:08:11;8.73;;;6.60;;
64403;SDS011;50726;54.912;-8.392;2022-07-04T09:10:37;8.32;;;6.53;;
64403;SDS011;50726;54.912;-8.392;2022-07-04T09:13:04;7.43;;;6.57;;
64403;SDS011;50726;54.912;-8.392;2022-07-04T09:15:32;13.80;;;6.78;;
64403;SDS011;50726;54.912;-8.392;2022-07-04T09:17:59;12.23;;;6.88;;
64403;SDS011;50726;54.912;-8.392;2022-07-04T09:20:26;14.40;;;7.50;;
64403;SDS011;50726;54.912;-8.392;2022-07-04T09:22:53;21.73;;;6.72;;
64403;SDS011;50726;54.912;-8.392;2022-07-04T09:25:20;12.70;;;4.65;;
64403;SDS011;50726;54.912;-8.392;2022-07-04T09:27:48;9.88;;;4.22;;
64403;SDS011;50726;54.912;-8.392;2022-07-04T09:30:16;7.40;;;3.10;;
64403;SDS011;50726;54.912;-8.392;2022-07-04T09:35:12;7.07;;;2.72;;
64403;SDS011;50726;54.912;-8.392;2022-07-04T09:37:41;16.33;;;2.58;;
64403;SDS011;50726;54.912;-8.392;2022-07-04T09:40:11;4.55;;;2.00;;
64403;SDS011;50726;54.912;-8.392;2022-07-04T09:42:56;7.22;;;2.15;;
64403;SDS011;50726;54.912;-8.392;2022-07-04T09:45:24;11.98;;;3.30;;
64403;SDS011;50726;54.912;-8.392;2022-07-04T09:47:52;6.63;;;3.80;;
64403;SDS011;50726;54.912;-8.392;2022-07-04T09:50:22;11.05;;;7.93;;
64403;SDS011;50726;54.912;-8.392;2022-07-04T09:52:58;14.00;;;12.77;;
64403;SDS011;50726;54.912;-8.392;2022-07-04T09:55:29;16.80;;;15.43;;
64403;SDS011;50726;54.912;-8.392;2022-07-04T09:58:00;25.00;;;18.58;;
64403;SDS011;50726;54.912;-8.392;2022-07-04T10:00:32;24.65;;;22.65;;
64403;SDS011;50726;54.912;-8.392;2022-07-04T10:03:16;31.98;;;29.08;;
64403;SDS011;50726;54.912;-8.392;2022-07-04T10:06:01;36.85;;;34.38;;
64403;SDS011;50726;54.912;-8.392;2022-07-04T10:08:31;48.97;;;46.10;;
64403;SDS011;50726;54.912;-8.392;2022-07-04T10:10:57;67.80;;;64.10;;
64403;SDS011;50726;54.912;-8.392;2022-07-04T10:13:24;77.78;;;73.47;;
64403;SDS011;50726;54.912;-8.392;2022-07-04T10:15:50;71.10;;;67.18;;
64403;SDS011;50726;54.912;-8.392;2022-07-04T10:18:21;46.53;;;43.50;;
64403;SDS011;50726;54.912;-8.392;2022-07-04T10:20:48;32.70;;;30.40;;
64403;SDS011;50726;54.912;-8.392;2022-07-04T10:23:15;25.20;;;23.40;;
64403;SDS011;50726;54.912;-8.392;2022-07-04T10:25:41;39.95;;;37.25;;
64403;SDS011;50726;54.912;-8.392;2022-07-04T10:28:08;56.53;;;52.80;;
64403;SDS011;50726;54.912;-8.392;2022-07-04T10:30:34;65.68;;;60.55;;
64403;SDS011;50726;54.912;-8.392;2022-07-04T10:33:06;83.93;;;77.00;;
64403;SDS011;50726;54.912;-8.392;2022-07-04T10:38:20;43.10;;;39.85;;
64403;SDS011;50726;54.912;-8.392;2022-07-04T10:48:31;14.02;;;7.13;;
64403;SDS011;50726;54.912;-8.392;2022-07-04T10:51:01;14.88;;;13.35;;
64403;SDS011;50726;54.912;-8.392;2022-07-04T10:53:28;16.38;;;11.18;;
64403;SDS011;50726;54.912;-8.392;2022-07-04T10:56:31;14.23;;;13.13;;
64403;SDS011;50726;54.912;-8.392;2022-07-04T10:58:41;22.45;;;20.70;;
64403;SDS011;50726;54.912;-8.392;2022-07-04T11:01:11;21.40;;;19.20;;
64403;SDS011;50726;54.912;-8.392;2022-07-04T11:03:44;23.38;;;21.30;;
64403;SDS011;50726;54.912;-8.392;2022-07-04T11:14:35;41.00;;;23.90;;
64403;SDS011;50726;54.912;-8.392;2022-07-04T11:17:15;31.50;;;28.45;;
64403;SDS011;50726;54.912;-8.392;2022-07-04T11:19:45;39.38;;;36.05;;
64403;SDS011;50726;54.912;-8.392;2022-07-04T11:22:12;30.08;;;27.33;;
64403;SDS011;50726;54.912;-8.392;2022-07-04T11:24:49;11.25;;;10.00;;
64403;SDS011;50726;54.912;-8.392;2022-07-04T11:27:15;15.50;;;9.57;;
64403;SDS011;50726;54.912;-8.392;2022-07-04T11:29:50;18.17;;;7.85;;
64403;SDS011;50726;54.912;-8.392;2022-07-04T11:32:16;15.23;;;9.30;;
64403;SDS011;50726;54.912;-8.392;2022-07-04T11:34:42;10.23;;;9.43;;
64403;SDS011;50726;54.912;-8.392;2022-07-04T11:37:08;8.05;;;7.45;;
64403;SDS011;50726;54.912;-8.392;2022-07-04T11:39:33;8.75;;;5.53;;
64403;SDS011;50726;54.912;-8.392;2022-07-04T11:41:59;8.93;;;5.53;;
64403;SDS011;50726;54.912;-8.392;2022-07-04T11:44:43;15.93;;;6.28;;
64403;SDS011;50726;54.912;-8.392;2022-07-04T11:50:10;11.02;;;5.97;;
64403;SDS011;50726;54.912;-8.392;2022-07-04T11:52:40;7.75;;;6.38;;
64403;SDS011;50726;54.912;-8.392;2022-07-04T11:55:10;10.55;;;9.45;;
64403;SDS011;50726;54.912;-8.392;2022-07-04T11:57:48;13.27;;;11.80;;
64403;SDS011;50726;54.912;-8.392;2022-07-04T12:00:20;20.05;;;17.92;;
64403;SDS011;50726;54.912;-8.392;2022-07-04T12:02:50;17.63;;;16.35;;
64403;SDS011;50726;54.912;-8.392;2022-07-04T12:05:16;16.00;;;14.50;;
64403;SDS011;50726;54.912;-8.392;2022-07-04T12:07:43;11.23;;;8.23;;
64403;SDS011;50726;54.912;-8.392;2022-07-04T12:12:59;11.98;;;5.05;;
64403;SDS011;50726;54.912;-8.392;2022-07-04T12:20:50;10.43;;;2.10;;
64403;SDS011;50726;54.912;-8.392;2022-07-04T12:23:23;10.13;;;3.58;;
64403;SDS011;50726;54.912;-8.392;2022-07-04T12:25:53;11.57;;;2.33;;
64403;SDS011;50726;54.912;-8.392;2022-07-04T12:28:20;3.45;;;1.40;;
64403;SDS011;50726;54.912;-8.392;2022-07-04T12:33:14;8.10;;;1.50;;
64403;SDS011;50726;54.912;-8.392;2022-07-04T12:46:07;3.95;;;1.05;;
64403;SDS011;50726;54.912;-8.392;2022-07-04T12:48:35;9.55;;;2.17;;
64403;SDS011;50726;54.912;-8.392;2022-07-04T12:51:12;10.77;;;2.60;;
64403;SDS011;50726;54.912;-8.392;2022-07-04T12:53:41;5.15;;;3.17;;
64403;SDS011;50726;54.912;-8.392;2022-07-04T12:56:08;8.25;;;3.92;;
64403;SDS011;50726;54.912;-8.392;2022-07-04T12:58:35;10.75;;;3.28;;
64403;SDS011;50726;54.912;-8.392;2022-07-04T13:01:02;10.85;;;2.70;;
64403;SDS011;50726;54.912;-8.392;2022-07-04T13:03:28;8.05;;;2.38;;
64403;SDS011;50726;54.912;-8.392;2022-07-04T13:05:54;7.03;;;2.65;;
64403;SDS011;50726;54.912;-8.392;2022-07-04T13:08:22;5.18;;;3.20;;
64403;SDS011;50726;54.912;-8.392;2022-07-04T13:10:48;5.40;;;3.05;;
64403;SDS011;50726;54.912;-8.392;2022-07-04T13:13:35;8.48;;;5.75;;
64403;SDS011;50726;54.912;-8.392;2022-07-04T13:16:02;9.55;;;8.77;;
64403;SDS011;50726;54.912;-8.392;2022-07-04T13:18:28;17.33;;;15.52;;
64403;SDS011;50726;54.912;-8.392;2022-07-04T13:20:54;23.55;;;21.30;;
64403;SDS011;50726;54.912;-8.392;2022-07-04T13:25:51;32.17;;;29.42;;
64403;SDS011;50726;54.912;-8.392;2022-07-04T13:28:17;24.65;;;22.60;;
64403;SDS011;50726;54.912;-8.392;2022-07-04T13:30:43;27.13;;;25.33;;
64403;SDS011;50726;54.912;-8.392;2022-07-04T13:33:08;24.83;;;22.73;;
64403;SDS011;50726;54.912;-8.392;2022-07-04T13:35:34;33.63;;;31.02;;
64403;SDS011;50726;54.912;-8.392;2022-07-04T13:38:00;37.00;;;34.35;;
64403;SDS011;50726;54.912;-8.392;2022-07-04T13:40:26;25.40;;;23.38;;
64403;SDS011;50726;54.912;-8.392;2022-07-04T13:42:52;24.98;;;22.27;;
64403;SDS011;50726;54.912;-8.392;2022-07-04T13:45:24;18.65;;;17.23;;
64403;SDS011;50726;54.912;-8.392;2022-07-04T13:47:53;14.10;;;12.88;;
64403;SDS011;50726;54.912;-8.392;2022-07-04T13:50:19;11.45;;;9.43;;
64403;SDS011;50726;54.912;-8.392;2022-07-04T13:52:45;9.02;;;7.88;;
64403;SDS011;50726;54.912;-8.392;2022-07-04T13:55:11;10.65;;;6.15;;
64403;SDS011;50726;54.912;-8.392;2022-07-04T13:57:37;9.43;;;4.63;;
64403;SDS011;50726;54.912;-8.392;2022-07-04T14:00:03;16.40;;;4.75;;
64403;SDS011;50726;54.912;-8.392;2022-07-04T14:02:30;8.45;;;6.40;;
64403;SDS011;50726;54.912;-8.392;2022-07-04T14:04:56;11.27;;;4.25;;
64403;SDS011;50726;54.912;-8.392;2022-07-04T14:07:21;14.48;;;3.30;;
64403;SDS011;50726;54.912;-8.392;2022-07-04T14:09:47;4.60;;;2.42;;
64403;SDS011;50726;54.912;-8.392;2022-07-04T14:12:13;14.95;;;3.00;;
64403;SDS011;50726;54.912;-8.392;2022-07-04T14:14:39;14.93;;;2.08;;
64403;SDS011;50726;54.912;-8.392;2022-07-04T14:17:05;13.82;;;3.25;;
64403;SDS011;50726;54.912;-8.392;2022-07-04T14:19:31;13.57;;;2.90;;
64403;SDS011;50726;54.912;-8.392;2022-07-04T14:21:57;11.60;;;4.22;;
64403;SDS011;50726;54.912;-8.392;2022-07-04T14:24:23;14.85;;;4.07;;
64403;SDS011;50726;54.912;-8.392;2022-07-04T14:26:51;7.28;;;6.20;;
64403;SDS011;50726;54.912;-8.392;2022-07-04T14:29:18;10.73;;;6.65;;
64403;SDS011;50726;54.912;-8.392;2022-07-04T14:31:43;15.32;;;7.50;;
64403;SDS011;50726;54.912;-8.392;2022-07-04T14:34:09;6.00;;;5.22;;
64403;SDS011;50726;54.912;-8.392;2022-07-04T14:36:37;9.43;;;5.65;;
64403;SDS011;50726;54.912;-8.392;2022-07-04T14:39:03;9.63;;;4.65;;
64403;SDS011;50726;54.912;-8.392;2022-07-04T14:41:29;5.50;;;3.25;;
64403;SDS011;50726;54.912;-8.392;2022-07-04T14:43:55;6.95;;;2.88;;
64403;SDS011;50726;54.912;-8.392;2022-07-04T14:46:21;4.22;;;1.77;;
64403;SDS011;50726;54.912;-8.392;2022-07-04T14:48:46;13.40;;;2.67;;
64403;SDS011;50726;54.912;-8.392;2022-07-04T14:51:12;3.90;;;1.60;;
64403;SDS011;50726;54.912;-8.392;2022-07-04T14:53:37;7.45;;;2.45;;
64403;SDS011;50726;54.912;-8.392;2022-07-04T14:56:03;21.50;;;3.25;;
64403;SDS011;50726;54.912;-8.392;2022-07-04T14:58:29;7.65;;;2.13;;
64403;SDS011;50726;54.912;-8.392;2022-07-04T15:00:55;9.80;;;2.22;;
64403;SDS011;50726;54.912;-8.392;2022-07-04T15:03:21;8.45;;;3.08;;
64403;SDS011;50726;54.912;-8.392;2022-07-04T15:05:46;6.40;;;2.85;;
64403;SDS011;50726;54.912;-8.392;2022-07-04T15:08:12;10.98;;;3.92;;